Terminal Aerodrome Forecast
Issued by NWS Austin/San Antonio, TX

Home | Current Version | Previous Version | Text Only | Print | Product List | Glossary On
Versions: 1 2 3 4 5 6 7 8 9 10 11 12 13 14 15 16 17 18 19 20
756
FTUS44 KEWX 301732
TAFAUS
TAF
KAUS 301732Z 3018/3124 20011KT P6SM SCT030
     FM301900 18012KT P6SM SCT050
     FM311030 18005KT P6SM BKN011
     FM311500 17008KT P6SM SCT025
     FM312000 19013KT P6SM SCT050=

USA.gov is the U.S. government's official web portal to all federal, state and local government web resources and services.